createdAt,value
2022-12-03T00:00:11.925Z,102594.78
2022-12-03T00:02:39.536Z,102602.34
2022-12-03T00:05:06.512Z,102588.59
2022-12-03T00:07:33.180Z,102592.06
2022-12-03T00:09:59.786Z,102593.00
2022-12-03T00:12:26.309Z,102598.84
2022-12-03T00:14:52.976Z,102598.00
2022-12-03T00:17:19.600Z,102586.72
2022-12-03T00:19:46.263Z,102597.28
2022-12-03T00:22:13.681Z,102586.09
2022-12-03T00:24:40.230Z,102589.34
2022-12-03T00:27:06.768Z,102585.97
2022-12-03T00:29:33.339Z,102573.91
2022-12-03T00:31:59.857Z,102584.34
2022-12-03T00:34:26.418Z,102581.63
2022-12-03T00:36:52.950Z,102578.09
2022-12-03T00:39:19.498Z,102577.28
2022-12-03T00:41:46.055Z,102580.75
2022-12-03T00:44:12.554Z,102573.97
2022-12-03T00:46:39.463Z,102567.88
2022-12-03T00:49:06.022Z,102570.53
2022-12-03T00:51:34.909Z,102573.91
2022-12-03T00:54:01.719Z,102576.53
2022-12-03T00:56:28.285Z,102567.00
2022-12-03T00:58:54.808Z,102561.84
2022-12-03T01:01:21.450Z,102553.06
2022-12-03T01:03:48.002Z,102553.94
2022-12-03T01:06:14.502Z,102566.84
2022-12-03T01:08:40.966Z,102556.44
2022-12-03T01:11:07.496Z,102553.69
2022-12-03T01:13:34.015Z,102553.78
2022-12-03T01:16:00.643Z,102566.81
2022-12-03T01:18:27.219Z,102559.97
2022-12-03T01:20:53.841Z,102568.50
2022-12-03T01:23:20.381Z,102556.44
2022-12-03T01:25:46.950Z,102551.09
2022-12-03T01:28:13.461Z,102551.28
2022-12-03T01:30:40.011Z,102537.06
2022-12-03T01:33:06.491Z,102548.44
2022-12-03T01:35:33.028Z,102548.63
2022-12-03T01:37:59.525Z,102549.41
2022-12-03T01:40:26.051Z,102558.19
2022-12-03T01:42:52.548Z,102559.06
2022-12-03T01:45:23.624Z,102550.28
2022-12-03T01:47:50.169Z,102544.38
2022-12-03T01:50:22.911Z,102549.78
2022-12-03T01:52:49.573Z,102549.72
2022-12-03T01:55:21.831Z,102542.75
2022-12-03T01:57:54.624Z,102550.47
2022-12-03T02:00:24.418Z,102558.31
2022-12-03T02:03:00.304Z,102557.38
2022-12-03T02:05:30.057Z,102556.63
2022-12-03T02:07:57.900Z,102565.22
2022-12-03T02:10:34.200Z,102559.13
2022-12-03T02:13:09.067Z,102560.88
2022-12-03T02:15:38.210Z,102547.81
2022-12-03T02:18:04.978Z,102554.81
2022-12-03T02:20:35.854Z,102557.44
2022-12-03T02:23:02.299Z,102550.66
2022-12-03T02:25:32.187Z,102557.50
2022-12-03T02:28:00.503Z,102550.66
2022-12-03T02:30:29.611Z,102565.22
2022-12-03T02:32:57.502Z,102566.03
2022-12-03T02:35:35.802Z,102564.44
2022-12-03T02:38:19.861Z,102568.63
2022-12-03T02:40:49.302Z,102564.34
2022-12-03T02:43:17.179Z,102566.84
2022-12-03T02:45:46.632Z,102578.03
2022-12-03T02:48:19.896Z,102574.56
2022-12-03T02:50:52.637Z,102553.69
2022-12-03T02:53:22.069Z,102560.63
2022-12-03T02:55:50.338Z,102564.69
2022-12-03T02:58:17.940Z,102562.25
2022-12-03T03:00:45.859Z,102556.97
2022-12-03T03:03:13.121Z,102568.94
2022-12-03T03:05:40.603Z,102562.91
2022-12-03T03:08:08.826Z,102561.19
2022-12-03T03:10:39.678Z,102567.94
2022-12-03T03:13:10.688Z,102552.94
2022-12-03T03:15:39.301Z,102558.25
2022-12-03T03:18:11.010Z,102565.88
2022-12-03T03:20:38.708Z,102564.88
2022-12-03T03:23:19.971Z,102565.75
2022-12-03T03:26:11.336Z,102568.34
2022-12-03T03:28:44.860Z,102561.25
2022-12-03T03:31:14.040Z,102554.50
2022-12-03T03:33:43.612Z,102564.00
2022-12-03T03:36:10.742Z,102557.81
2022-12-03T03:38:38.107Z,102552.66
2022-12-03T03:41:06.215Z,102551.94
2022-12-03T03:43:34.690Z,102546.59
2022-12-03T03:46:03.718Z,102557.88
2022-12-03T03:48:30.694Z,102543.13
2022-12-03T03:50:57.458Z,102549.22
2022-12-03T03:53:24.507Z,102543.25
2022-12-03T03:55:51.359Z,102550.16
2022-12-03T03:58:17.946Z,102544.13
2022-12-03T04:00:45.327Z,102544.00
2022-12-03T04:03:12.624Z,102538.78
2022-12-03T04:05:39.868Z,102544.13
2022-12-03T04:08:06.448Z,102533.66
2022-12-03T04:10:33.028Z,102530.34
2022-12-03T04:13:00.104Z,102526.94
2022-12-03T04:15:27.306Z,102533.66
2022-12-03T04:17:54.031Z,102526.91
2022-12-03T04:20:20.588Z,102522.56
2022-12-03T04:22:47.122Z,102524.31
2022-12-03T04:25:13.676Z,102532.97
2022-12-03T04:27:40.174Z,102521.78
2022-12-03T04:30:07.262Z,102516.66
2022-12-03T04:32:33.733Z,102504.34
2022-12-03T04:35:00.269Z,102513.16
2022-12-03T04:37:26.755Z,102500.22
2022-12-03T04:39:53.284Z,102505.47
2022-12-03T04:42:19.825Z,102502.97
2022-12-03T04:44:46.343Z,102502.97
2022-12-03T04:47:16.182Z,102493.28
2022-12-03T04:49:47.421Z,102488.06
2022-12-03T04:52:16.525Z,102499.53
2022-12-03T04:54:43.310Z,102494.38
2022-12-03T04:57:10.885Z,102492.50
2022-12-03T04:59:38.448Z,102476.97
2022-12-03T05:02:06.556Z,102482.28
2022-12-03T05:04:33.820Z,102482.22
2022-12-03T05:07:00.349Z,102477.88
2022-12-03T05:09:26.861Z,102484.78
2022-12-03T05:11:53.492Z,102476.09
2022-12-03T05:14:20.022Z,102478.03
2022-12-03T05:16:46.617Z,102481.53
2022-12-03T05:19:13.136Z,102482.22
2022-12-03T05:21:39.701Z,102470.03
2022-12-03T05:24:06.442Z,102471.84
2022-12-03T05:26:33.077Z,102473.59
2022-12-03T05:29:01.177Z,102467.56
2022-12-03T05:31:27.868Z,102461.63
2022-12-03T05:33:54.382Z,102462.31
2022-12-03T05:36:20.912Z,102465.81
2022-12-03T05:38:47.444Z,102457.28
2022-12-03T05:41:13.968Z,102460.75
2022-12-03T05:43:40.472Z,102444.22
2022-12-03T05:46:07.044Z,102458.94
2022-12-03T05:48:33.590Z,102450.38
2022-12-03T05:51:00.131Z,102444.34
2022-12-03T05:53:26.649Z,102436.44
2022-12-03T05:55:53.171Z,102435.50
2022-12-03T05:58:19.668Z,102437.41
2022-12-03T06:00:46.151Z,102428.81
2022-12-03T06:03:12.702Z,102422.78
2022-12-03T06:05:39.286Z,102429.81
2022-12-03T06:08:05.907Z,102408.97
2022-12-03T06:10:32.531Z,102416.06
2022-12-03T06:12:58.987Z,102407.34
2022-12-03T06:15:25.532Z,102405.72
2022-12-03T06:17:52.077Z,102407.50
2022-12-03T06:20:20.341Z,102399.63
2022-12-03T06:23:01.925Z,102408.31
2022-12-03T06:25:28.424Z,102410.72
2022-12-03T06:27:54.904Z,102399.56
2022-12-03T06:30:21.483Z,102396.09
2022-12-03T06:32:48.005Z,102391.78
2022-12-03T06:35:14.668Z,102403.97
2022-12-03T06:37:41.161Z,102393.53
2022-12-03T06:40:08.369Z,102399.34
2022-12-03T06:42:34.828Z,102399.50
2022-12-03T06:45:01.364Z,102393.47
2022-12-03T06:47:29.627Z,102396.78
2022-12-03T06:49:56.172Z,102389.88
2022-12-03T06:52:22.668Z,102393.41
2022-12-03T06:54:49.360Z,102382.03
2022-12-03T06:57:15.860Z,102382.84
2022-12-03T06:59:42.415Z,102387.31
2022-12-03T07:02:10.302Z,102392.34
2022-12-03T07:04:36.845Z,102376.72
2022-12-03T07:07:03.395Z,102371.56
2022-12-03T07:09:29.939Z,102381.09
2022-12-03T07:11:57.086Z,102380.34
2022-12-03T07:14:23.707Z,102368.16
2022-12-03T07:16:50.220Z,102364.66
2022-12-03T07:19:16.794Z,102357.81
2022-12-03T07:21:43.321Z,102371.59
2022-12-03T07:24:10.140Z,102365.53
2022-12-03T07:26:36.676Z,102356.69
2022-12-03T07:29:03.412Z,102371.59
2022-12-03T07:31:30.012Z,102359.28
2022-12-03T07:33:56.573Z,102362.22
2022-12-03T07:36:23.382Z,102370.88
2022-12-03T07:38:49.919Z,102359.63
2022-12-03T07:41:16.534Z,102369.19
2022-12-03T07:43:43.114Z,102362.34
2022-12-03T07:46:09.718Z,102357.41
2022-12-03T07:48:36.355Z,102363.53
2022-12-03T07:51:03.005Z,102367.00
2022-12-03T07:53:29.521Z,102352.38
2022-12-03T07:55:56.003Z,102352.38
2022-12-03T07:58:22.541Z,102351.56
2022-12-03T08:00:49.274Z,102350.91
2022-12-03T08:03:15.878Z,102351.84
2022-12-03T08:05:42.380Z,102352.78
2022-12-03T08:08:09.049Z,102348.56
2022-12-03T08:10:35.643Z,102348.78
2022-12-03T08:13:06.617Z,102349.66
2022-12-03T08:15:39.099Z,102349.78
2022-12-03T08:18:32.731Z,102337.06
2022-12-03T08:20:59.313Z,102334.50
2022-12-03T08:23:26.473Z,102344.78
2022-12-03T08:25:53.135Z,102338.75
2022-12-03T08:28:27.026Z,102345.72
2022-12-03T08:31:09.736Z,102344.91
2022-12-03T08:33:37.246Z,102337.31
2022-12-03T08:36:25.253Z,102341.59
2022-12-03T08:38:55.779Z,102334.75
2022-12-03T08:41:22.884Z,102336.47
2022-12-03T08:43:49.571Z,102327.03
2022-12-03T08:46:19.033Z,102333.97
2022-12-03T08:48:49.117Z,102328.91
2022-12-03T08:51:22.573Z,102322.94
2022-12-03T08:54:01.816Z,102324.81
2022-12-03T08:56:30.833Z,102321.44
2022-12-03T08:59:16.775Z,102318.97
2022-12-03T09:01:45.734Z,102327.66
2022-12-03T09:04:27.666Z,102320.88
2022-12-03T09:06:55.020Z,102321.69
2022-12-03T09:09:22.358Z,102319.13
2022-12-03T09:11:49.789Z,102307.78
2022-12-03T09:14:18.732Z,102310.59
2022-12-03T09:16:46.012Z,102309.81
2022-12-03T09:19:12.791Z,102307.31
2022-12-03T09:21:39.375Z,102304.66
2022-12-03T09:24:06.495Z,102301.09
2022-12-03T09:26:33.059Z,102292.44
2022-12-03T09:28:59.660Z,102302.88
2022-12-03T09:31:26.320Z,102301.09
2022-12-03T09:33:52.909Z,102293.38
2022-12-03T09:36:19.463Z,102293.44
2022-12-03T09:38:48.065Z,102294.44
2022-12-03T09:41:14.944Z,102295.41
2022-12-03T09:46:29.808Z,102288.13
2022-12-03T09:48:56.490Z,102286.63
2022-12-03T09:51:32.578Z,102286.06
2022-12-03T09:54:01.401Z,102289.84
2022-12-03T09:56:27.971Z,102275.34
2022-12-03T09:58:54.688Z,102277.19
2022-12-03T10:01:21.876Z,102265.13
2022-12-03T10:03:51.106Z,102281.28
2022-12-03T10:06:23.464Z,102282.34
2022-12-03T10:08:54.621Z,102278.16
2022-12-03T10:11:24.393Z,102283.63
2022-12-03T10:13:54.035Z,102282.81
2022-12-03T10:16:21.529Z,102264.75
2022-12-03T10:18:54.260Z,102276.19
2022-12-03T10:21:30.513Z,102278.09
2022-12-03T10:24:20.458Z,102278.19
2022-12-03T10:26:48.817Z,102267.19
2022-12-03T10:29:23.178Z,102264.84
2022-12-03T10:32:00.183Z,102264.22
2022-12-03T10:34:31.993Z,102257.63
2022-12-03T10:37:25.081Z,102257.19
2022-12-03T10:40:13.092Z,102253.19
2022-12-03T10:42:41.066Z,102240.56
2022-12-03T10:45:16.833Z,102241.66
2022-12-03T10:48:01.612Z,102240.16
2022-12-03T10:50:29.089Z,102228.28
2022-12-03T10:52:55.896Z,102232.84
2022-12-03T10:55:22.560Z,102227.88
2022-12-03T10:57:49.166Z,102212.50
2022-12-03T11:00:18.464Z,102224.81
2022-12-03T11:02:50.417Z,102219.91
2022-12-03T11:05:25.581Z,102214.88
2022-12-03T11:07:52.551Z,102199.38
2022-12-03T11:10:19.634Z,102209.13
2022-12-03T11:13:24.181Z,102207.56
2022-12-03T11:15:50.905Z,102201.75
2022-12-03T11:18:36.054Z,102192.44
2022-12-03T11:21:04.878Z,102195.19
2022-12-03T11:23:47.035Z,102193.63
2022-12-03T11:26:38.251Z,102189.44
2022-12-03T11:29:13.791Z,102185.41
2022-12-03T11:31:48.122Z,102183.09
2022-12-03T11:34:20.943Z,102184.13
2022-12-03T11:37:09.572Z,102177.38
2022-12-03T11:39:45.652Z,102169.75
2022-12-03T11:42:22.591Z,102169.75
2022-12-03T11:45:04.478Z,102159.50
2022-12-03T11:47:36.967Z,102160.44
2022-12-03T11:50:21.373Z,102145.66
2022-12-03T11:53:12.888Z,102157.91
2022-12-03T11:55:42.811Z,102134.44
2022-12-03T11:58:26.271Z,102150.22
2022-12-03T12:01:00.976Z,102151.16
2022-12-03T12:03:29.342Z,102142.63
2022-12-03T12:06:12.690Z,102143.59
2022-12-03T12:08:54.688Z,102124.50
2022-12-03T12:11:30.412Z,102142.84
2022-12-03T12:14:02.083Z,102137.66
2022-12-03T12:16:40.977Z,102142.88
2022-12-03T12:19:42.530Z,102134.19
2022-12-03T12:22:29.717Z,102117.81
2022-12-03T12:24:57.415Z,102124.69
2022-12-03T12:27:40.293Z,102115.19
2022-12-03T12:30:14.862Z,102117.78
2022-12-03T12:32:49.129Z,102116.09
2022-12-03T12:35:23.145Z,102112.63
2022-12-03T12:37:56.628Z,102105.69
2022-12-03T12:40:31.614Z,102090.84
2022-12-03T12:43:04.187Z,102103.84
2022-12-03T12:45:36.875Z,102091.53
2022-12-03T12:48:30.939Z,102102.78
2022-12-03T12:51:14.823Z,102088.81
2022-12-03T12:53:41.680Z,102106.94
2022-12-03T12:56:37.792Z,102090.47
2022-12-03T12:59:19.748Z,102094.78
2022-12-03T13:01:48.248Z,102095.66
2022-12-03T13:04:23.288Z,102092.13
2022-12-03T13:06:52.812Z,102087.03
2022-12-03T13:09:21.921Z,102083.56
2022-12-03T13:11:53.533Z,102085.38
2022-12-03T13:14:24.160Z,102087.19
2022-12-03T13:16:53.447Z,102084.59
2022-12-03T13:19:24.530Z,102082.00
2022-12-03T13:21:55.707Z,102082.00
2022-12-03T13:24:45.743Z,102064.78
2022-12-03T13:27:18.562Z,102064.00
2022-12-03T13:29:53.266Z,102070.00
2022-12-03T13:32:23.430Z,102057.09
2022-12-03T13:34:50.013Z,102045.81
2022-12-03T13:37:20.903Z,102049.31
2022-12-03T13:39:50.096Z,102047.53
2022-12-03T13:42:22.568Z,102058.00
2022-12-03T13:44:49.925Z,102044.09
2022-12-03T13:47:20.672Z,102044.16
2022-12-03T13:49:52.392Z,102040.59
2022-12-03T13:52:21.998Z,102035.41
2022-12-03T13:54:51.336Z,102043.13
2022-12-03T13:57:18.115Z,102040.50
2022-12-03T13:59:44.844Z,102035.22
2022-12-03T14:02:11.416Z,102040.34
2022-12-03T14:04:38.488Z,102034.28
2022-12-03T14:07:05.773Z,102033.31
2022-12-03T14:09:32.484Z,102021.91
2022-12-03T14:11:59.027Z,102010.50
2022-12-03T14:14:25.554Z,102024.41
2022-12-03T14:16:59.526Z,102019.03
2022-12-03T14:19:26.922Z,102023.34
2022-12-03T14:21:53.603Z,102018.94
2022-12-03T14:24:20.280Z,102039.69
2022-12-03T14:26:46.851Z,102034.38
2022-12-03T14:29:13.441Z,102036.09
2022-12-03T14:31:49.775Z,102030.03
2022-12-03T14:34:17.646Z,102023.16
2022-12-03T14:36:44.431Z,102026.56
2022-12-03T14:39:11.072Z,102027.34
2022-12-03T14:41:37.656Z,102025.59
2022-12-03T14:44:04.386Z,102022.94
2022-12-03T14:46:32.885Z,102015.97
2022-12-03T14:48:59.481Z,102007.06
2022-12-03T14:51:26.189Z,102007.88
2022-12-03T14:53:52.816Z,102015.63
2022-12-03T14:56:19.701Z,102006.06
2022-12-03T14:58:46.223Z,101994.63
2022-12-03T15:01:12.778Z,102005.84
2022-12-03T15:03:39.499Z,101996.16
2022-12-03T15:06:06.372Z,102009.03
2022-12-03T15:08:33.010Z,101986.31
2022-12-03T15:10:59.643Z,101988.78
2022-12-03T15:13:26.229Z,101993.00
2022-12-03T15:15:52.748Z,101998.00
2022-12-03T15:18:19.405Z,101987.38
2022-12-03T15:20:46.147Z,102005.44
2022-12-03T15:23:14.443Z,102001.72
2022-12-03T15:25:41.353Z,101997.28
2022-12-03T15:28:07.920Z,101996.22
2022-12-03T15:30:34.463Z,101990.81
2022-12-03T15:33:01.983Z,101998.41
2022-12-03T15:35:31.676Z,102004.38
2022-12-03T15:37:59.121Z,101993.00
2022-12-03T15:40:26.391Z,102000.63
2022-12-03T15:42:52.955Z,102002.22
2022-12-03T15:45:19.641Z,101997.84
2022-12-03T15:47:46.234Z,101999.41
2022-12-03T15:50:13.061Z,102001.84
2022-12-03T15:52:40.106Z,101995.63
2022-12-03T15:55:07.054Z,101996.22
2022-12-03T15:57:33.606Z,102002.03
2022-12-03T16:00:02.615Z,101982.75
2022-12-03T16:02:39.041Z,101998.13
2022-12-03T16:05:08.541Z,101994.41
2022-12-03T16:07:35.383Z,101992.38
2022-12-03T16:10:02.174Z,101994.72
2022-12-03T16:12:28.922Z,101983.19
2022-12-03T16:14:55.492Z,101997.72
2022-12-03T16:17:22.107Z,102001.75
2022-12-03T16:19:48.708Z,102000.84
2022-12-03T16:22:15.837Z,102000.59
2022-12-03T16:24:42.473Z,101998.75
2022-12-03T16:27:09.280Z,102009.81
2022-12-03T16:29:35.817Z,102000.94
2022-12-03T16:32:02.511Z,102005.19
2022-12-03T16:34:29.091Z,102003.34
2022-12-03T16:36:55.920Z,102004.13
2022-12-03T16:39:22.623Z,102008.19
2022-12-03T16:41:49.152Z,102016.06
2022-12-03T16:44:15.937Z,101999.41
2022-12-03T16:46:42.587Z,102014.19
2022-12-03T16:49:09.428Z,102012.31
2022-12-03T16:51:35.940Z,102008.81
2022-12-03T16:54:02.589Z,101999.00
2022-12-03T16:56:29.163Z,101989.56
2022-12-03T16:58:56.747Z,101995.69
2022-12-03T17:01:23.542Z,101993.63
2022-12-03T17:03:50.593Z,101996.31
2022-12-03T17:06:17.186Z,102006.63
2022-12-03T17:08:49.100Z,101999.47
2022-12-03T17:11:16.686Z,102000.25
2022-12-03T17:13:43.212Z,102008.78
2022-12-03T17:16:09.962Z,102002.78
2022-12-03T17:18:36.658Z,102002.59
2022-12-03T17:21:03.432Z,102013.00
2022-12-03T17:23:29.983Z,102001.75
2022-12-03T17:25:56.637Z,102000.69
2022-12-03T17:28:23.322Z,102000.78
2022-12-03T17:30:50.151Z,101991.03
2022-12-03T17:33:16.853Z,102009.19
2022-12-03T17:35:43.462Z,101999.59
2022-12-03T17:38:10.135Z,101993.53
2022-12-03T17:40:36.758Z,102001.94
2022-12-03T17:43:03.311Z,101995.81
2022-12-03T17:45:29.852Z,101988.81
2022-12-03T17:47:56.497Z,101982.56
2022-12-03T17:50:24.644Z,101985.13
2022-12-03T17:52:51.433Z,101990.97
2022-12-03T17:55:27.711Z,101971.63
2022-12-03T17:57:57.946Z,101985.47
2022-12-03T18:00:24.692Z,101985.13
2022-12-03T18:02:51.839Z,101974.59
2022-12-03T18:05:18.725Z,101982.41
2022-12-03T18:07:45.378Z,101979.56
2022-12-03T18:10:11.973Z,101983.81
2022-12-03T18:12:38.668Z,101977.63
2022-12-03T18:15:05.597Z,101970.47
2022-12-03T18:17:32.186Z,101977.38
2022-12-03T18:19:58.842Z,101969.22
2022-12-03T18:22:25.765Z,101972.72
2022-12-03T18:24:52.356Z,101974.31
2022-12-03T18:27:21.092Z,101963.72
2022-12-03T18:29:47.980Z,101966.28
2022-12-03T18:32:28.252Z,101952.19
2022-12-03T18:34:55.570Z,101959.06
2022-12-03T18:37:26.025Z,101961.53
2022-12-03T18:39:53.354Z,101957.09
2022-12-03T18:42:23.336Z,101960.31
2022-12-03T18:44:53.711Z,101967.81
2022-12-03T18:47:22.604Z,101963.47
2022-12-03T18:49:49.601Z,101969.16
2022-12-03T18:52:19.225Z,101971.63
2022-12-03T18:54:46.111Z,101980.06
2022-12-03T18:57:12.794Z,101966.31
2022-12-03T18:59:39.935Z,101961.03
2022-12-03T19:02:07.896Z,101964.56
2022-12-03T19:04:34.538Z,101958.63
2022-12-03T19:07:02.209Z,101955.28
2022-12-03T19:09:28.792Z,101956.13
2022-12-03T19:11:55.617Z,101959.63
2022-12-03T19:14:22.214Z,101947.41
2022-12-03T19:16:48.770Z,101952.78
2022-12-03T19:19:15.594Z,101957.94
2022-12-03T19:21:42.312Z,101947.56
2022-12-03T19:24:25.431Z,101957.06
2022-12-03T19:26:52.293Z,101950.03
2022-12-03T19:29:18.867Z,101947.56
2022-12-03T19:31:45.664Z,101954.41
2022-12-03T19:34:12.244Z,101941.47
2022-12-03T19:36:38.797Z,101932.88
2022-12-03T19:39:05.365Z,101943.03
2022-12-03T19:41:31.920Z,101937.13
2022-12-03T19:43:59.092Z,101928.63
2022-12-03T19:46:27.706Z,101925.88
2022-12-03T19:48:54.677Z,101930.25
2022-12-03T19:51:34.171Z,101927.56
2022-12-03T19:54:02.218Z,101924.88
2022-12-03T19:56:28.918Z,101929.59
2022-12-03T19:58:56.221Z,101931.47
2022-12-03T20:01:25.819Z,101941.03
2022-12-03T20:03:55.494Z,101938.53
2022-12-03T20:06:24.439Z,101926.44
2022-12-03T20:08:55.787Z,101946.66
2022-12-03T20:11:25.314Z,101944.19
2022-12-03T20:13:56.976Z,101930.47
2022-12-03T20:16:24.913Z,101940.34
2022-12-03T20:18:55.939Z,101932.47
2022-12-03T20:21:23.817Z,101934.66
2022-12-03T20:23:50.632Z,101938.16
2022-12-03T20:26:19.696Z,101933.25
2022-12-03T20:28:47.599Z,101933.41
2022-12-03T20:31:19.250Z,101932.63
2022-12-03T20:33:47.382Z,101937.91
2022-12-03T20:36:16.550Z,101930.38
2022-12-03T20:38:43.624Z,101932.13
2022-12-03T20:41:12.458Z,101933.09
2022-12-03T20:43:39.185Z,101922.97
2022-12-03T20:46:09.622Z,101925.53
2022-12-03T20:48:37.102Z,101899.31
2022-12-03T20:51:06.113Z,101927.53
2022-12-03T20:53:33.460Z,101930.22
2022-12-03T20:56:01.482Z,101935.41
2022-12-03T20:58:29.047Z,101919.84
2022-12-03T21:00:56.217Z,101899.63
2022-12-03T21:03:22.968Z,101926.59
2022-12-03T21:05:49.781Z,101911.03
2022-12-03T21:08:27.943Z,101901.06
2022-12-03T21:11:07.902Z,101906.94
2022-12-03T21:13:34.684Z,101921.91
2022-12-03T21:16:07.556Z,101918.34
2022-12-03T21:18:35.321Z,101911.28
2022-12-03T21:21:03.176Z,101921.53
2022-12-03T21:23:31.100Z,101917.34
2022-12-03T21:26:05.125Z,101921.53
2022-12-03T21:28:33.016Z,101913.72
2022-12-03T21:31:01.888Z,101912.78
2022-12-03T21:33:29.527Z,101904.78
2022-12-03T21:35:56.456Z,101925.44
2022-12-03T21:38:23.817Z,101905.63
2022-12-03T21:40:50.425Z,101918.63
2022-12-03T21:43:17.038Z,101904.72
2022-12-03T21:45:44.198Z,101915.19
2022-12-03T21:48:11.259Z,101915.25
2022-12-03T21:50:37.840Z,101907.47
2022-12-03T21:53:04.476Z,101895.44
2022-12-03T21:55:31.365Z,101908.78
2022-12-03T21:57:57.948Z,101909.72
2022-12-03T22:00:24.649Z,101914.97
2022-12-03T22:02:51.451Z,101901.94
2022-12-03T22:05:18.131Z,101904.75
2022-12-03T22:07:44.821Z,101905.81
2022-12-03T22:10:12.477Z,101910.22
2022-12-03T22:12:39.265Z,101906.91
2022-12-03T22:15:06.548Z,101907.00
2022-12-03T22:17:35.952Z,101908.84
2022-12-03T22:20:04.024Z,101899.28
2022-12-03T22:22:30.659Z,101878.28
2022-12-03T22:24:57.677Z,101916.78
2022-12-03T22:27:24.871Z,101908.38
2022-12-03T22:29:51.666Z,101904.00
2022-12-03T22:32:18.272Z,101898.09
2022-12-03T22:34:44.789Z,101898.22
2022-12-03T22:37:11.445Z,101899.13
2022-12-03T22:39:38.002Z,101901.84
2022-12-03T22:42:04.782Z,101879.38
2022-12-03T22:44:31.381Z,101894.22
2022-12-03T22:46:58.053Z,101896.94
2022-12-03T22:49:25.851Z,101886.59
2022-12-03T22:51:52.376Z,101876.41
2022-12-03T22:54:23.719Z,101880.63
2022-12-03T22:56:50.753Z,101881.59
2022-12-03T22:59:17.367Z,101881.59
2022-12-03T23:01:43.959Z,101879.97
2022-12-03T23:04:11.347Z,101885.13
2022-12-03T23:06:38.552Z,101885.19
2022-12-03T23:09:06.607Z,101886.09
2022-12-03T23:11:33.769Z,101886.97
2022-12-03T23:14:00.336Z,101867.88
2022-12-03T23:16:30.156Z,101874.13
2022-12-03T23:19:01.352Z,101873.31
2022-12-03T23:21:31.123Z,101863.03
2022-12-03T23:24:02.742Z,101869.09
2022-12-03T23:26:29.622Z,101870.00
2022-12-03T23:28:56.588Z,101850.97
2022-12-03T23:31:26.436Z,101867.28
2022-12-03T23:33:53.985Z,101863.91
2022-12-03T23:36:21.392Z,101868.09
2022-12-03T23:38:48.179Z,101855.81
2022-12-03T23:41:17.950Z,101853.91
2022-12-03T23:43:44.674Z,101851.13
2022-12-03T23:46:14.351Z,101850.97
2022-12-03T23:48:42.011Z,101844.47
2022-12-03T23:51:11.006Z,101858.03
2022-12-03T23:53:38.627Z,101852.50
2022-12-03T23:56:11.853Z,101857.47
2022-12-03T23:58:38.853Z,101855.59
